ASH weather

Boire Field
Nashua, New Hampshire, United States

Public forecast

Using degrees Fahrenheit for public forecast. Weather courtesy of forecast.io.

Current aviation weather report (METAR) for Boire Field

Retrieved 2020/04/07 09:56 UTC (47 minutes ago):

KASH 070956Z AUTO 32003KT 10SM CLR 02/M03 A2990 RMK AO2 SLP129 T00221033

Closest aviation forecast (TAF) to Boire Field

Closest forecast is Manchester-Boston Regional Airport, 9.7 nm (18.0 km) NNE. Retrieved 2020/04/07 06:42 UTC (4 hours ago):

TAF KMHT 070540Z 0706/0806 00000KT P6SM BKN250 FM071400 31010KT P6SM FEW250 FM080100 VRB03KT P6SM SCT250